Time;durP1;ratioP1;P1;durP2;ratioP2;P2;SDS_P1;SDS_P2;PMS_P1;PMS_P2;Temp;Humidity;BMP_temperature;BMP_pressure;BME280_temperature;BME280_humidity;BME280_pressure;Samples;Min_cycle;Max_cycle;Signal;HPM_P1;HPM_P2
2022/05/18 00:00:15;;;;;;;16.05;9.48;;;;;;;;;;5052457;28;20044;-70
2022/05/18 00:02:41;;;;;;;12.68;10.38;;;;;;;;;;5052667;28;20028;-67
2022/05/18 00:05:07;;;;;;;16.33;9.75;;;;;;;;;;5052730;28;20072;-71
2022/05/18 00:07:33;;;;;;;12.18;9.80;;;;;;;;;;5052484;28;20437;-70
2022/05/18 00:09:59;;;;;;;16.40;10.23;;;;;;;;;;5052657;28;20033;-73
2022/05/18 00:12:27;;;;;;;13.45;9.77;;;;;;;;;;5052011;28;20024;-69
2022/05/18 00:14:53;;;;;;;13.40;10.65;;;;;;;;;;5052092;28;20037;-71
2022/05/18 00:17:19;;;;;;;14.30;8.77;;;;;;;;;;5052103;28;20025;-70
2022/05/18 00:19:45;;;;;;;13.98;8.98;;;;;;;;;;5052320;28;20486;-67
2022/05/18 00:22:11;;;;;;;16.85;9.50;;;;;;;;;;5052064;28;20032;-66
2022/05/18 00:24:37;;;;;;;15.43;10.32;;;;;;;;;;5051744;28;20156;-66
2022/05/18 00:27:03;;;;;;;17.65;10.13;;;;;;;;;;5034870;28;20100;-72
2022/05/18 00:29:30;;;;;;;13.07;9.25;;;;;;;;;;5030753;28;20499;-72
2022/05/18 00:31:56;;;;;;;19.77;10.02;;;;;;;;;;5032190;28;20057;-73
2022/05/18 00:34:22;;;;;;;16.45;10.20;;;;;;;;;;5032114;28;20059;-70
2022/05/18 00:36:48;;;;;;;14.50;10.32;;;;;;;;;;5051647;28;20108;-71
2022/05/18 00:39:14;;;;;;;20.48;10.57;;;;;;;;;;5051852;28;20513;-73
2022/05/18 00:41:40;;;;;;;11.93;8.93;;;;;;;;;;5052039;28;20029;-69
2022/05/18 00:44:06;;;;;;;11.35;8.10;;;;;;;;;;5052107;28;20039;-70
2022/05/18 00:46:32;;;;;;;12.85;8.52;;;;;;;;;;5052205;28;20025;-73
2022/05/18 00:49:02;;;;;;;16.10;9.13;;;;;;;;;;5051982;28;20029;-73
2022/05/18 00:51:31;;;;;;;15.85;9.05;;;;;;;;;;5051685;28;20357;-68
2022/05/18 00:54:06;;;;;;;12.90;8.07;;;;;;;;;;5052001;28;20401;-73
2022/05/18 00:56:38;;;;;;;16.40;8.90;;;;;;;;;;5050944;28;20037;-67
2022/05/18 00:59:28;;;;;;;16.50;9.57;;;;;;;;;;5032084;28;20112;-69
2022/05/18 01:01:55;;;;;;;11.60;8.63;;;;;;;;;;5031833;28;20033;-69
2022/05/18 01:04:23;;;;;;;14.43;8.90;;;;;;;;;;5031685;28;20028;-69
2022/05/18 01:06:57;;;;;;;14.32;8.68;;;;;;;;;;5031698;28;20044;-68
2022/05/18 01:09:43;;;;;;;13.60;8.13;;;;;;;;;;5031661;28;20060;-68
2022/05/18 01:12:13;;;;;;;12.40;8.18;;;;;;;;;;5031610;28;20057;-67
2022/05/18 01:14:44;;;;;;;17.83;9.60;;;;;;;;;;5031754;28;20037;-72
2022/05/18 01:17:13;;;;;;;11.57;8.52;;;;;;;;;;5031868;28;20046;-72
2022/05/18 01:19:47;;;;;;;11.63;8.07;;;;;;;;;;5031785;28;20025;-68
2022/05/18 01:22:30;;;;;;;10.68;8.05;;;;;;;;;;5031635;28;20026;-69
2022/05/18 01:25:33;;;;;;;10.43;8.23;;;;;;;;;;5031465;28;20477;-71
2022/05/18 01:28:00;;;;;;;12.57;7.10;;;;;;;;;;5031648;28;20037;-70
2022/05/18 01:30:29;;;;;;;11.70;7.63;;;;;;;;;;5031683;28;20018;-69
2022/05/18 01:32:57;;;;;;;10.65;7.35;;;;;;;;;;5031516;28;20068;-68
2022/05/18 01:35:30;;;;;;;12.45;6.85;;;;;;;;;;5031168;28;20033;-69
2022/05/18 01:37:59;;;;;;;9.52;7.25;;;;;;;;;;5031356;28;20080;-71
2022/05/18 01:40:43;;;;;;;10.80;7.20;;;;;;;;;;5031575;28;20056;-69
2022/05/18 01:43:30;;;;;;;9.52;7.35;;;;;;;;;;5031502;28;20480;-68
2022/05/18 01:46:00;;;;;;;9.20;6.95;;;;;;;;;;5031255;28;20037;-69
2022/05/18 01:48:33;;;;;;;11.27;6.53;;;;;;;;;;5031400;28;20122;-69
2022/05/18 01:50:59;;;;;;;;;;;;;;;;;;5032027;28;20033;-68
2022/05/18 01:53:26;;;;;;;10.85;6.45;;;;;;;;;;5031442;28;20008;-68
2022/05/18 01:55:52;;;;;;;9.77;7.07;;;;;;;;;;5031089;28;20504;-69
2022/05/18 01:58:18;;;;;;;8.00;6.57;;;;;;;;;;5031437;28;20037;-69
2022/05/18 02:00:45;;;;;;;10.32;6.80;;;;;;;;;;5031433;28;20361;-68
2022/05/18 02:03:12;;;;;;;11.80;7.18;;;;;;;;;;5033622;28;20472;-67
2022/05/18 02:05:39;;;;;;;11.02;6.40;;;;;;;;;;5034830;28;20288;-68
2022/05/18 02:08:05;;;;;;;11.80;6.57;;;;;;;;;;5034726;28;20067;-69
2022/05/18 02:10:32;;;;;;;23.05;7.25;;;;;;;;;;5034762;28;20036;-67
2022/05/18 02:12:58;;;;;;;12.18;6.97;;;;;;;;;;5034587;28;20030;-70
2022/05/18 02:15:24;;;;;;;15.70;7.10;;;;;;;;;;5034527;28;20507;-67
2022/05/18 02:17:51;;;;;;;12.07;7.20;;;;;;;;;;5034650;28;20029;-69
2022/05/18 02:20:18;;;;;;;10.95;6.90;;;;;;;;;;5034792;28;20037;-70
2022/05/18 02:22:44;;;;;;;8.20;6.10;;;;;;;;;;5034817;28;20029;-69
2022/05/18 02:25:10;;;;;;;11.77;6.00;;;;;;;;;;5034710;28;20026;-72
2022/05/18 02:27:36;;;;;;;12.75;5.88;;;;;;;;;;5034182;28;20075;-71
2022/05/18 02:30:04;;;;;;;11.63;6.25;;;;;;;;;;5034426;28;20039;-72
2022/05/18 02:32:30;;;;;;;13.10;7.25;;;;;;;;;;5034528;28;20158;-72
2022/05/18 02:34:56;;;;;;;13.05;6.88;;;;;;;;;;5034167;28;20116;-69
2022/05/18 02:37:22;;;;;;;12.13;6.80;;;;;;;;;;5034133;28;20018;-72
2022/05/18 02:39:48;;;;;;;18.48;7.32;;;;;;;;;;5034158;28;20029;-70
2022/05/18 02:42:13;;;;;;;18.20;6.95;;;;;;;;;;5034250;28;20029;-71
2022/05/18 02:44:39;;;;;;;11.40;6.30;;;;;;;;;;5034403;28;20105;-72
2022/05/18 02:47:05;;;;;;;9.52;6.78;;;;;;;;;;5033920;28;20025;-70
2022/05/18 02:49:31;;;;;;;12.73;7.47;;;;;;;;;;5034196;28;20435;-71
2022/05/18 02:51:58;;;;;;;12.23;6.85;;;;;;;;;;5033953;28;20112;-71
2022/05/18 02:57:10;;;;;;;17.38;7.60;;;;;;;;;;5033591;28;20080;-72
2022/05/18 02:59:37;;;;;;;12.93;6.97;;;;;;;;;;5033988;28;20037;-68
2022/05/18 03:02:03;;;;;;;10.40;6.55;;;;;;;;;;5033873;28;20021;-72
2022/05/18 03:04:30;;;;;;;11.75;7.15;;;;;;;;;;5033874;28;20033;-68
2022/05/18 03:06:57;;;;;;;13.70;7.22;;;;;;;;;;5033699;28;20510;-73
2022/05/18 03:09:22;;;;;;;12.70;7.15;;;;;;;;;;5034066;28;20029;-73
2022/05/18 03:11:50;;;;;;;11.65;6.55;;;;;;;;;;5033776;28;20507;-71
2022/05/18 03:14:17;;;;;;;10.57;7.05;;;;;;;;;;5033315;28;20423;-68
2022/05/18 03:16:44;;;;;;;11.70;7.53;;;;;;;;;;5033162;28;20032;-69
2022/05/18 03:19:14;;;;;;;12.75;6.72;;;;;;;;;;5033680;28;20108;-68
2022/05/18 03:24:24;;;;;;;11.73;7.15;;;;;;;;;;5033082;28;20048;-72
2022/05/18 03:26:50;;;;;;;14.73;7.68;;;;;;;;;;5032873;28;20021;-71
2022/05/18 03:29:17;;;;;;;13.50;7.00;;;;;;;;;;5033383;28;20037;-73
2022/05/18 03:31:44;;;;;;;18.17;7.68;;;;;;;;;;5033217;28;20083;-71
2022/05/18 03:34:10;;;;;;;25.88;7.10;;;;;;;;;;5033093;28;20040;-68
2022/05/18 03:36:37;;;;;;;16.25;7.43;;;;;;;;;;5032836;28;20017;-71
2022/05/18 03:39:04;;;;;;;14.48;7.30;;;;;;;;;;5032913;28;20045;-72
2022/05/18 03:41:30;;;;;;;11.57;6.95;;;;;;;;;;5032793;28;20116;-69
2022/05/18 03:43:56;;;;;;;10.70;6.22;;;;;;;;;;5033118;28;20512;-67
2022/05/18 03:46:22;;;;;;;17.27;6.70;;;;;;;;;;5032784;28;20026;-67
2022/05/18 03:48:47;;;;;;;19.23;7.60;;;;;;;;;;5032279;28;20107;-69
2022/05/18 03:51:16;;;;;;;19.02;7.30;;;;;;;;;;5032155;28;20021;-69
2022/05/18 03:53:42;;;;;;;19.38;7.70;;;;;;;;;;5032260;28;20082;-67
2022/05/18 03:56:08;;;;;;;13.57;6.63;;;;;;;;;;5032193;28;20512;-68
2022/05/18 03:58:35;;;;;;;17.27;7.03;;;;;;;;;;5031945;28;20404;-68
2022/05/18 04:01:08;;;;;;;13.13;6.72;;;;;;;;;;5032016;28;20032;-67
2022/05/18 04:03:35;;;;;;;14.50;7.15;;;;;;;;;;5032017;28;20041;-68
2022/05/18 04:06:01;;;;;;;19.70;6.28;;;;;;;;;;5032232;28;20025;-68
2022/05/18 04:08:30;;;;;;;13.80;6.45;;;;;;;;;;5032424;28;20030;-71
2022/05/18 04:10:57;;;;;;;16.08;7.18;;;;;;;;;;5032321;28;20107;-71
2022/05/18 04:13:27;;;;;;;22.25;7.40;;;;;;;;;;5031948;28;20429;-68
2022/05/18 04:15:54;;;;;;;22.42;7.35;;;;;;;;;;5051306;28;20036;-69
2022/05/18 04:18:22;;;;;;;17.00;6.97;;;;;;;;;;5052100;28;20057;-67
2022/05/18 04:20:52;;;;;;;17.77;7.43;;;;;;;;;;5051792;28;20108;-69
2022/05/18 04:23:19;;;;;;;11.48;7.03;;;;;;;;;;5051609;28;20060;-74
2022/05/18 04:25:45;;;;;;;16.00;7.10;;;;;;;;;;5050713;28;20048;-71
2022/05/18 04:28:14;;;;;;;15.18;7.07;;;;;;;;;;5051320;28;20045;-76
2022/05/18 04:30:43;;;;;;;12.23;6.35;;;;;;;;;;5051890;28;20040;-73
2022/05/18 04:33:15;;;;;;;23.08;6.63;;;;;;;;;;5056931;28;20081;-74
2022/05/18 04:35:41;;;;;;;13.70;6.70;;;;;;;;;;5052632;28;20037;-74
2022/05/18 04:38:07;;;;;;;16.75;6.78;;;;;;;;;;5049790;28;20036;-75
2022/05/18 04:40:33;;;;;;;15.70;6.05;;;;;;;;;;5049345;28;20029;-76
2022/05/18 04:42:59;;;;;;;17.33;7.18;;;;;;;;;;5050284;28;20119;-75
2022/05/18 04:45:25;;;;;;;19.25;6.60;;;;;;;;;;5050276;28;20040;-75
2022/05/18 04:47:51;;;;;;;10.88;6.38;;;;;;;;;;5050184;28;20036;-73
2022/05/18 04:50:19;;;;;;;17.90;7.40;;;;;;;;;;5050604;28;20039;-73
2022/05/18 04:52:45;;;;;;;14.88;6.53;;;;;;;;;;5051785;28;20040;-73
2022/05/18 04:55:12;;;;;;;16.65;6.60;;;;;;;;;;5052611;28;20044;-73
2022/05/18 04:57:38;;;;;;;13.50;6.10;;;;;;;;;;5051667;28;20137;-73
2022/05/18 05:00:07;;;;;;;13.43;6.97;;;;;;;;;;5051881;28;20164;-75
2022/05/18 05:02:37;;;;;;;13.07;7.15;;;;;;;;;;5051423;28;20484;-71
2022/05/18 05:05:06;;;;;;;19.13;6.90;;;;;;;;;;5050654;28;20499;-73
2022/05/18 05:07:31;;;;;;;11.75;6.82;;;;;;;;;;5050511;28;20025;-73
2022/05/18 05:09:57;;;;;;;17.83;6.90;;;;;;;;;;5051686;28;20029;-69
2022/05/18 05:12:25;;;;;;;15.88;10.98;;;;;;;;;;5051033;28;20032;-73
2022/05/18 05:14:51;;;;;;;15.82;9.30;;;;;;;;;;5050348;28;20116;-74
2022/05/18 05:17:16;;;;;;;17.48;8.45;;;;;;;;;;5051161;28;20056;-74
2022/05/18 05:19:42;;;;;;;19.13;8.45;;;;;;;;;;5051745;28;20500;-74
2022/05/18 05:22:08;;;;;;;16.98;7.20;;;;;;;;;;5051867;28;20036;-71
2022/05/18 05:24:35;;;;;;;15.32;7.25;;;;;;;;;;5052054;28;20120;-71
2022/05/18 05:27:01;;;;;;;18.45;8.05;;;;;;;;;;5051509;28;20108;-72
2022/05/18 05:29:26;;;;;;;17.65;7.47;;;;;;;;;;5051990;28;20457;-72
2022/05/18 05:31:52;;;;;;;15.93;7.63;;;;;;;;;;5051704;28;20017;-74
2022/05/18 05:34:18;;;;;;;12.90;8.15;;;;;;;;;;5052076;28;20090;-72
2022/05/18 05:36:44;;;;;;;13.70;7.28;;;;;;;;;;5053710;28;20056;-74
2022/05/18 05:39:10;;;;;;;18.75;8.32;;;;;;;;;;5056153;28;20021;-73
2022/05/18 05:41:35;;;;;;;13.82;7.72;;;;;;;;;;5054594;28;20089;-72
2022/05/18 05:44:01;;;;;;;12.45;7.25;;;;;;;;;;5055618;28;20035;-72
2022/05/18 05:46:27;;;;;;;24.83;8.65;;;;;;;;;;5055554;28;20032;-72
2022/05/18 05:48:55;;;;;;;20.52;7.38;;;;;;;;;;5053786;28;20040;-73
2022/05/18 05:51:23;;;;;;;15.73;7.70;;;;;;;;;;5055355;28;20102;-70
2022/05/18 05:53:51;;;;;;;13.20;7.47;;;;;;;;;;5055504;28;20028;-73
2022/05/18 05:56:18;;;;;;;13.40;7.25;;;;;;;;;;5065712;28;20071;-73
2022/05/18 05:58:47;;;;;;;12.25;7.50;;;;;;;;;;5075230;28;20403;-72
2022/05/18 06:01:14;;;;;;;13.30;7.07;;;;;;;;;;5074282;28;20036;-74
2022/05/18 06:03:41;;;;;;;12.73;7.82;;;;;;;;;;5075329;28;20035;-71
2022/05/18 06:06:08;;;;;;;15.18;7.28;;;;;;;;;;5075312;28;20033;-75
2022/05/18 06:08:35;;;;;;;13.60;6.88;;;;;;;;;;5075092;28;20145;-73
2022/05/18 06:11:01;;;;;;;16.17;7.65;;;;;;;;;;5075194;28;20066;-73
2022/05/18 06:13:28;;;;;;;19.35;8.77;;;;;;;;;;5075144;28;20424;-72
2022/05/18 06:15:55;;;;;;;15.18;7.20;;;;;;;;;;5074968;28;20032;-73
2022/05/18 06:18:21;;;;;;;12.55;6.97;;;;;;;;;;5075134;28;20457;-73
2022/05/18 06:20:47;;;;;;;14.70;7.55;;;;;;;;;;5074774;28;20112;-75
2022/05/18 06:23:15;;;;;;;17.60;7.85;;;;;;;;;;5074875;28;20105;-76
2022/05/18 06:25:41;;;;;;;16.75;7.30;;;;;;;;;;5074826;28;20064;-73
2022/05/18 06:28:08;;;;;;;16.27;8.13;;;;;;;;;;5074714;28;20048;-72
2022/05/18 06:30:34;;;;;;;18.83;8.63;;;;;;;;;;5074542;28;20029;-71
2022/05/18 06:33:00;;;;;;;13.45;8.00;;;;;;;;;;5074960;28;20043;-72
2022/05/18 06:35:26;;;;;;;14.43;7.78;;;;;;;;;;5074811;28;20021;-72
2022/05/18 06:37:51;;;;;;;15.50;7.97;;;;;;;;;;5074505;28;20044;-75
2022/05/18 06:40:18;;;;;;;13.50;8.13;;;;;;;;;;5050798;28;20021;-73
2022/05/18 06:42:44;;;;;;;14.55;7.28;;;;;;;;;;5034520;28;20038;-76
2022/05/18 06:45:13;;;;;;;9.88;7.18;;;;;;;;;;5034402;28;20017;-73
2022/05/18 06:47:40;;;;;;;10.70;6.82;;;;;;;;;;5033899;28;20044;-75
2022/05/18 06:50:08;;;;;;;9.13;6.88;;;;;;;;;;5034343;28;20048;-74
2022/05/18 06:52:35;;;;;;;11.98;6.95;;;;;;;;;;5034249;28;20029;-71
2022/05/18 06:55:01;;;;;;;7.47;6.30;;;;;;;;;;5034275;28;20077;-73
2022/05/18 06:57:26;;;;;;;8.15;6.00;;;;;;;;;;5034343;28;20115;-70
2022/05/18 06:59:52;;;;;;;10.57;5.50;;;;;;;;;;5034345;28;20439;-70
2022/05/18 07:02:18;;;;;;;11.25;5.43;;;;;;;;;;5034023;28;20033;-72
2022/05/18 07:04:44;;;;;;;9.30;6.15;;;;;;;;;;5034104;28;20072;-71
2022/05/18 07:07:10;;;;;;;8.52;5.40;;;;;;;;;;5034026;28;20040;-72
2022/05/18 07:09:36;;;;;;;8.55;5.47;;;;;;;;;;5048689;28;20426;-72
2022/05/18 07:12:03;;;;;;;8.88;5.60;;;;;;;;;;5073750;28;20035;-72
2022/05/18 07:14:29;;;;;;;10.57;5.72;;;;;;;;;;5073383;28;20066;-72
2022/05/18 07:16:56;;;;;;;8.07;5.13;;;;;;;;;;5053380;28;20075;-72
2022/05/18 07:19:23;;;;;;;7.25;5.13;;;;;;;;;;5072750;28;20032;-75
2022/05/18 07:21:50;;;;;;;7.57;5.18;;;;;;;;;;5073909;28;20107;-73
2022/05/18 07:24:16;;;;;;;12.05;5.65;;;;;;;;;;5073747;28;20023;-70
2022/05/18 07:26:44;;;;;;;13.20;4.93;;;;;;;;;;5073344;28;20502;-70
2022/05/18 07:29:10;;;;;;;7.93;5.40;;;;;;;;;;5073785;28;20017;-71
2022/05/18 07:34:21;;;;;;;7.80;4.75;;;;;;;;;;5073669;28;20032;-71
2022/05/18 07:36:48;;;;;;;7.18;4.75;;;;;;;;;;5073282;28;20420;-71
2022/05/18 07:39:14;;;;;;;11.18;4.95;;;;;;;;;;5073383;28;20051;-71
2022/05/18 07:41:40;;;;;;;8.27;4.63;;;;;;;;;;5066008;28;20017;-71
2022/05/18 07:44:06;;;;;;;7.15;4.38;;;;;;;;;;5053480;28;20033;-72
2022/05/18 07:46:32;;;;;;;8.18;4.70;;;;;;;;;;5053191;28;20025;-71
2022/05/18 07:48:59;;;;;;;7.05;4.45;;;;;;;;;;5053482;28;20440;-72
2022/05/18 07:51:24;;;;;;;10.43;4.38;;;;;;;;;;5057398;28;20016;-73
2022/05/18 07:53:50;;;;;;;5.30;4.38;;;;;;;;;;5073119;28;20209;-73
2022/05/18 07:56:16;;;;;;;7.28;4.32;;;;;;;;;;5073149;28;20124;-73
2022/05/18 07:58:42;;;;;;;14.48;4.78;;;;;;;;;;5073085;28;20035;-73
2022/05/18 08:01:08;;;;;;;5.82;4.60;;;;;;;;;;5072186;28;20025;-72
2022/05/18 08:03:35;;;;;;;14.40;7.03;;;;;;;;;;5072952;28;20064;-72
2022/05/18 08:06:02;;;;;;;7.05;5.03;;;;;;;;;;5072776;28;20024;-73
2022/05/18 08:08:28;;;;;;;7.20;4.43;;;;;;;;;;5072767;28;20052;-72
2022/05/18 08:16:24;;;;;;;7.68;4.47;;;;;;;;;;5072472;28;20391;-72
2022/05/18 08:18:51;;;;;;;7.93;3.88;;;;;;;;;;5072258;28;20036;-72
2022/05/18 08:21:18;;;;;;;9.68;4.00;;;;;;;;;;5063429;28;20059;-71
2022/05/18 08:23:44;;;;;;;6.05;3.97;;;;;;;;;;5052312;28;20025;-71
2022/05/18 08:26:11;;;;;;;7.97;4.00;;;;;;;;;;5052016;28;20112;-70
2022/05/18 08:28:37;;;;;;;6.63;3.88;;;;;;;;;;5043479;28;20087;-72
2022/05/18 08:31:04;;;;;;;4.60;4.07;;;;;;;;;;5044222;28;20033;-71
2022/05/18 08:33:33;;;;;;;7.03;3.60;;;;;;;;;;5032777;28;20030;-71
2022/05/18 08:36:02;;;;;;;5.72;3.05;;;;;;;;;;5032430;28;20056;-72
2022/05/18 08:38:28;;;;;;;7.90;3.20;;;;;;;;;;5043143;28;20036;-72
2022/05/18 08:41:03;;;;;;;6.50;3.40;;;;;;;;;;5052182;28;20041;-71
2022/05/18 08:43:33;;;;;;;6.13;3.47;;;;;;;;;;5052126;28;20035;-71
2022/05/18 08:46:02;;;;;;;5.80;3.20;;;;;;;;;;5039059;28;20033;-72
2022/05/18 08:48:54;;;;;;;5.72;3.45;;;;;;;;;;5031716;28;20034;-72
2022/05/18 08:51:45;;;;;;;6.43;3.30;;;;;;;;;;5031769;28;20541;-72
2022/05/18 08:54:40;;;;;;;9.10;3.85;;;;;;;;;;5032129;28;20057;-72
2022/05/18 08:57:23;;;;;;;7.60;3.20;;;;;;;;;;5031979;28;20151;-75
2022/05/18 08:59:57;;;;;;;5.90;3.38;;;;;;;;;;5032210;28;20029;-73
2022/05/18 09:02:29;;;;;;;8.77;3.75;;;;;;;;;;5031903;28;20041;-72
2022/05/18 09:05:05;;;;;;;6.57;3.25;;;;;;;;;;5032036;28;20041;-73
2022/05/18 09:07:44;;;;;;;9.25;3.55;;;;;;;;;;5031475;28;20039;-72
2022/05/18 09:10:23;;;;;;;5.93;3.30;;;;;;;;;;5032075;28;20034;-72
2022/05/18 09:12:52;;;;;;;6.43;3.42;;;;;;;;;;5038201;28;20329;-74
2022/05/18 09:15:54;;;;;;;4.95;3.60;;;;;;;;;;5038476;28;20407;-74
2022/05/18 09:18:23;;;;;;;6.50;3.90;;;;;;;;;;5037557;28;20270;-71
2022/05/18 09:21:08;;;;;;;5.88;3.70;;;;;;;;;;5038315;28;20021;-72
2022/05/18 09:24:00;;;;;;;7.75;3.88;;;;;;;;;;5038836;28;20036;-73
2022/05/18 09:26:59;;;;;;;7.10;4.10;;;;;;;;;;5037306;28;20045;-73
2022/05/18 09:29:46;;;;;;;4.57;3.60;;;;;;;;;;5038502;28;20025;-72
2022/05/18 09:32:21;;;;;;;6.50;3.40;;;;;;;;;;5038506;28;20033;-72
2022/05/18 09:35:04;;;;;;;5.20;3.47;;;;;;;;;;5038542;28;20064;-74
2022/05/18 09:37:33;;;;;;;6.60;3.30;;;;;;;;;;5038351;28;20041;-73
2022/05/18 09:40:41;;;;;;;9.75;3.85;;;;;;;;;;5038537;28;20376;-73
2022/05/18 09:43:21;;;;;;;9.27;3.75;;;;;;;;;;5038129;28;20099;-73
2022/05/18 09:45:49;;;;;;;8.15;3.60;;;;;;;;;;5038647;28;20026;-75
2022/05/18 09:48:22;;;;;;;7.25;3.88;;;;;;;;;;5038077;28;20029;-72
2022/05/18 09:50:49;;;;;;;4.88;3.55;;;;;;;;;;5038072;28;20049;-77
2022/05/18 09:53:16;;;;;;;9.23;4.15;;;;;;;;;;5037948;28;20088;-73
2022/05/18 09:55:46;;;;;;;8.05;3.60;;;;;;;;;;5054627;28;20132;-75
2022/05/18 09:58:24;;;;;;;9.40;3.33;;;;;;;;;;5058338;28;20045;-74
2022/05/18 10:07:26;;;;;;;7.93;3.90;;;;;;;;;;5056876;28;20037;-74
2022/05/18 10:09:43;;;;;;;16.45;3.92;;;;;;;;;;5057898;28;20041;-76
2022/05/18 10:12:26;;;;;;;6.13;3.70;;;;;;;;;;5060005;28;20025;-74
2022/05/18 10:15:03;;;;;;;6.05;3.50;;;;;;;;;;5058132;28;20040;-73
2022/05/18 10:17:35;;;;;;;5.13;3.22;;;;;;;;;;5057771;28;20426;-73
2022/05/18 10:20:21;;;;;;;5.95;3.50;;;;;;;;;;5057959;28;20061;-74
2022/05/18 10:22:48;;;;;;;8.23;3.30;;;;;;;;;;5056218;28;20098;-76
2022/05/18 10:25:22;;;;;;;6.93;3.13;;;;;;;;;;5054562;28;20048;-73
2022/05/18 10:27:49;;;;;;;5.45;3.08;;;;;;;;;;5054291;28;20036;-75
2022/05/18 10:30:25;;;;;;;6.25;3.28;;;;;;;;;;5054572;28;20049;-74
2022/05/18 10:33:20;;;;;;;6.43;4.00;;;;;;;;;;5054634;28;20041;-73
2022/05/18 10:35:49;;;;;;;6.43;3.58;;;;;;;;;;5054598;28;20063;-72
2022/05/18 10:38:21;;;;;;;7.97;3.80;;;;;;;;;;5054359;28;20094;-73
2022/05/18 10:40:48;;;;;;;8.90;4.18;;;;;;;;;;5054682;28;20037;-71
2022/05/18 10:43:43;;;;;;;6.78;3.80;;;;;;;;;;5053097;28;20398;-72
2022/05/18 10:46:31;;;;;;;6.00;3.63;;;;;;;;;;5054464;28;20133;-72
2022/05/18 10:48:57;;;;;;;6.18;3.30;;;;;;;;;;5054613;28;20045;-72
2022/05/18 10:51:49;;;;;;;11.85;4.00;;;;;;;;;;5054741;28;20419;-73
2022/05/18 10:54:25;;;;;;;4.15;3.35;;;;;;;;;;5054172;28;20049;-74
2022/05/18 10:57:09;;;;;;;10.15;3.30;;;;;;;;;;5053856;28;20114;-72
2022/05/18 11:00:12;;;;;;;7.00;2.90;;;;;;;;;;5053980;28;20028;-73
2022/05/18 11:02:50;;;;;;;;;;;;;;;;;;5053811;28;20178;-71
2022/05/18 11:05:19;;;;;;;6.13;2.95;;;;;;;;;;5054136;28;19912;-73
2022/05/18 11:07:45;;;;;;;5.45;3.10;;;;;;;;;;5053112;28;20131;-72
2022/05/18 11:10:12;;;;;;;6.90;3.53;;;;;;;;;;5053815;28;20075;-76
2022/05/18 11:13:08;;;;;;;6.47;2.90;;;;;;;;;;5054054;28;20024;-71
2022/05/18 11:16:05;;;;;;;5.35;3.08;;;;;;;;;;5053617;28;20474;-70
2022/05/18 11:18:55;;;;;;;8.10;3.28;;;;;;;;;;5052949;28;20045;-71
2022/05/18 11:21:51;;;;;;;6.28;3.30;;;;;;;;;;5053748;28;20472;-71
2022/05/18 11:24:40;;;;;;;5.30;2.83;;;;;;;;;;5051077;28;20032;-73
2022/05/18 11:27:33;;;;;;;4.97;2.72;;;;;;;;;;5051404;28;20044;-71
2022/05/18 11:30:07;;;;;;;7.18;3.15;;;;;;;;;;5052107;28;20123;-72
2022/05/18 11:32:49;;;;;;;4.63;2.83;;;;;;;;;;5051618;28;20078;-72
2022/05/18 11:35:48;;;;;;;5.07;2.50;;;;;;;;;;5051996;28;20060;-73
2022/05/18 11:38:41;;;;;;;3.33;2.70;;;;;;;;;;5052838;28;20033;-76
2022/05/18 11:41:44;;;;;;;6.50;3.17;;;;;;;;;;5053489;28;20037;-73
2022/05/18 11:44:19;;;;;;;4.53;2.80;;;;;;;;;;5053659;28;20029;-74
2022/05/18 11:47:00;;;;;;;5.55;3.10;;;;;;;;;;5053206;28;20467;-73
2022/05/18 11:49:44;;;;;;;5.00;3.28;;;;;;;;;;5053285;28;20029;-71
2022/05/18 11:52:45;;;;;;;5.82;2.83;;;;;;;;;;5052894;28;20033;-72
2022/05/18 11:55:20;;;;;;;8.45;3.03;;;;;;;;;;5053174;28;20053;-71
2022/05/18 11:58:11;;;;;;;7.53;3.00;;;;;;;;;;5049973;28;20458;-75
2022/05/18 12:01:06;;;;;;;5.20;2.80;;;;;;;;;;5047820;28;20025;-73
2022/05/18 12:03:47;;;;;;;5.28;3.33;;;;;;;;;;5045749;28;20045;-71
2022/05/18 12:06:38;;;;;;;6.13;3.03;;;;;;;;;;5052876;28;20033;-73
2022/05/18 12:09:22;;;;;;;5.07;2.70;;;;;;;;;;5052836;28;20076;-73
2022/05/18 12:12:11;;;;;;;7.55;3.22;;;;;;;;;;5052959;28;20033;-72
2022/05/18 12:14:59;;;;;;;5.07;2.58;;;;;;;;;;5053156;28;20426;-71
2022/05/18 12:17:32;;;;;;;5.28;2.88;;;;;;;;;;5069766;28;20094;-72
2022/05/18 12:20:14;;;;;;;5.90;2.80;;;;;;;;;;5049617;28;20134;-71
2022/05/18 12:22:42;;;;;;;;;;;;;;;;;;5033197;28;20029;-71
2022/05/18 12:25:12;;;;;;;4.25;3.03;;;;;;;;;;5044293;28;19913;-72
2022/05/18 12:27:39;;;;;;;6.50;2.90;;;;;;;;;;5050954;28;20474;-71
2022/05/18 12:30:08;;;;;;;5.20;3.00;;;;;;;;;;5051276;28;20029;-70
2022/05/18 12:32:35;;;;;;;8.98;3.03;;;;;;;;;;5052737;28;20021;-71
2022/05/18 12:35:19;;;;;;;3.88;2.80;;;;;;;;;;5052522;28;20511;-71
2022/05/18 12:38:09;;;;;;;24.70;3.97;;;;;;;;;;5052453;28;20036;-75
2022/05/18 12:40:52;;;;;;;18.67;3.17;;;;;;;;;;5052447;28;20475;-75
2022/05/18 12:43:24;;;;;;;;;;;;;;;;;;5052986;28;20029;-71
2022/05/18 12:45:56;;;;;;;29.23;4.55;;;;;;;;;;5052933;28;19917;-75
2022/05/18 12:48:24;;;;;;;30.55;4.85;;;;;;;;;;5052283;28;20047;-73
2022/05/18 12:51:14;;;;;;;22.52;3.50;;;;;;;;;;5059078;28;20123;-74
2022/05/18 12:54:24;;;;;;;21.23;3.53;;;;;;;;;;5072273;28;20115;-74
2022/05/18 12:57:11;;;;;;;19.85;3.97;;;;;;;;;;5071266;28;20111;-73
2022/05/18 12:59:54;;;;;;;15.18;3.17;;;;;;;;;;5068241;28;20044;-73
2022/05/18 13:02:42;;;;;;;19.08;3.30;;;;;;;;;;5047718;28;20024;-71
2022/05/18 13:05:26;;;;;;;20.38;3.33;;;;;;;;;;5051830;28;20033;-72
2022/05/18 13:08:03;;;;;;;10.95;2.85;;;;;;;;;;5044108;28;20116;-69
2022/05/18 13:10:34;;;;;;;9.45;2.60;;;;;;;;;;5032107;28;20036;-71
2022/05/18 13:13:09;;;;;;;18.90;3.10;;;;;;;;;;5037629;28;20044;-75
2022/05/18 13:15:55;;;;;;;14.75;3.05;;;;;;;;;;5038695;28;20136;-71
2022/05/18 13:18:30;;;;;;;17.23;3.40;;;;;;;;;;5041564;28;20033;-77
2022/05/18 13:21:21;;;;;;;16.92;3.15;;;;;;;;;;5037274;28;20446;-77
2022/05/18 13:23:54;;;;;;;13.45;2.70;;;;;;;;;;5042736;28;20069;-77
2022/05/18 13:26:25;;;;;;;9.27;3.05;;;;;;;;;;5059836;28;20107;-82
2022/05/18 13:28:54;;;;;;;11.05;2.83;;;;;;;;;;5051152;28;20044;-76
2022/05/18 13:31:20;;;;;;;14.05;2.58;;;;;;;;;;5050003;28;20087;-81
2022/05/18 13:34:03;;;;;;;8.10;3.28;;;;;;;;;;5051447;28;20033;-83
2022/05/18 13:36:35;;;;;;;7.55;3.13;;;;;;;;;;5050703;28;20037;-80
2022/05/18 13:39:04;;;;;;;8.30;3.00;;;;;;;;;;5051843;28;20033;-82
2022/05/18 13:41:32;;;;;;;14.77;3.28;;;;;;;;;;5050092;28;20056;-78
2022/05/18 13:44:02;;;;;;;7.30;2.80;;;;;;;;;;5051840;28;20029;-80
2022/05/18 13:46:30;;;;;;;6.97;3.38;;;;;;;;;;5045258;28;20229;-83
2022/05/18 13:49:05;;;;;;;8.70;3.30;;;;;;;;;;5051279;28;20075;-80
2022/05/18 13:51:39;;;;;;;7.30;3.33;;;;;;;;;;5051069;28;20037;-81
2022/05/18 13:54:13;;;;;;;6.75;3.03;;;;;;;;;;5051498;28;20116;-80
2022/05/18 13:56:45;;;;;;;5.28;2.90;;;;;;;;;;5049506;28;20075;-71
2022/05/18 13:59:19;;;;;;;8.32;3.00;;;;;;;;;;5052858;28;20430;-72
2022/05/18 14:01:47;;;;;;;6.53;3.30;;;;;;;;;;5054781;28;20041;-71
2022/05/18 14:04:21;;;;;;;9.77;2.72;;;;;;;;;;5053629;28;20021;-73
2022/05/18 14:06:49;;;;;;;7.55;2.70;;;;;;;;;;5050298;28;20036;-71
2022/05/18 14:09:17;;;;;;;6.13;2.40;;;;;;;;;;5050418;28;20059;-71
2022/05/18 14:11:44;;;;;;;7.80;2.63;;;;;;;;;;5041910;28;20037;-78
2022/05/18 14:14:10;;;;;;;12.80;2.85;;;;;;;;;;5056996;28;20025;-77
2022/05/18 14:16:44;;;;;;;4.45;2.45;;;;;;;;;;5058485;28;20040;-73
2022/05/18 14:19:14;;;;;;;7.40;2.90;;;;;;;;;;5054170;28;20037;-79
2022/05/18 14:21:42;;;;;;;9.57;2.60;;;;;;;;;;5052088;28;20044;-74
2022/05/18 14:24:18;;;;;;;9.68;2.65;;;;;;;;;;5053435;28;20032;-73
2022/05/18 14:26:51;;;;;;;7.65;2.53;;;;;;;;;;5053781;28;20040;-73
2022/05/18 14:29:29;;;;;;;5.22;2.50;;;;;;;;;;5054149;28;20041;-72
2022/05/18 14:31:59;;;;;;;5.32;2.70;;;;;;;;;;5069425;28;20029;-73
2022/05/18 14:34:39;;;;;;;10.57;2.90;;;;;;;;;;5053844;28;20021;-73
2022/05/18 14:37:13;;;;;;;6.30;2.75;;;;;;;;;;5043303;28;20391;-78
2022/05/18 14:39:44;;;;;;;7.90;2.90;;;;;;;;;;5049957;28;20177;-74
2022/05/18 14:42:11;;;;;;;10.10;2.85;;;;;;;;;;5049506;28;20488;-74
2022/05/18 14:44:44;;;;;;;11.20;3.40;;;;;;;;;;5053604;28;20024;-72
2022/05/18 14:47:29;;;;;;;14.80;3.75;;;;;;;;;;5052692;28;20052;-71
2022/05/18 14:50:03;;;;;;;12.25;3.13;;;;;;;;;;5048714;28;20044;-71
2022/05/18 14:52:34;;;;;;;10.63;3.20;;;;;;;;;;5052018;28;20029;-71
2022/05/18 14:55:19;;;;;;;11.75;3.55;;;;;;;;;;5052714;28;20041;-72
2022/05/18 14:57:45;;;;;;;6.15;3.22;;;;;;;;;;5053070;28;20049;-73
2022/05/18 15:00:15;;;;;;;9.18;3.20;;;;;;;;;;5052744;28;20103;-71
2022/05/18 15:02:48;;;;;;;8.30;3.20;;;;;;;;;;5052963;28;20044;-75
2022/05/18 15:05:16;;;;;;;;;;;;;;;;;;5053536;28;20029;-72
2022/05/18 15:07:47;;;;;;;15.73;3.15;;;;;;;;;;5051875;28;20344;-73
2022/05/18 15:10:35;;;;;;;13.07;3.00;;;;;;;;;;5051383;28;20120;-82
2022/05/18 15:13:17;;;;;;;7.32;2.90;;;;;;;;;;5053514;28;20376;-81
2022/05/18 15:16:00;;;;;;;7.38;2.92;;;;;;;;;;5053632;28;20116;-85
2022/05/18 15:18:54;;;;;;;8.00;3.10;;;;;;;;;;5052626;28;20041;-77
2022/05/18 15:21:23;;;;;;;8.38;3.17;;;;;;;;;;5047869;28;20448;-76
2022/05/18 15:24:05;;;;;;;8.68;3.75;;;;;;;;;;5053476;28;20033;-72